createdAt,value
2023-09-30T00:00:09.894Z,3.97
2023-09-30T00:02:40.118Z,3.77
2023-09-30T00:05:07.853Z,3.73
2023-09-30T00:07:34.734Z,3.77
2023-09-30T00:10:01.809Z,4.00
2023-09-30T00:12:28.767Z,3.73
2023-09-30T00:14:55.818Z,3.70
2023-09-30T00:17:22.524Z,3.53
2023-09-30T00:19:49.589Z,3.30
2023-09-30T00:22:16.572Z,3.23
2023-09-30T00:24:43.384Z,3.40
2023-09-30T00:27:10.210Z,3.80
2023-09-30T00:29:36.992Z,3.30
2023-09-30T00:32:04.315Z,3.33
2023-09-30T00:34:37.627Z,4.23
2023-09-30T00:37:05.273Z,3.70
2023-09-30T00:39:34.106Z,3.80
2023-09-30T00:42:01.048Z,4.10
2023-09-30T00:44:29.116Z,3.70
2023-09-30T00:46:56.654Z,4.17
2023-09-30T00:49:27.308Z,4.27
2023-09-30T00:51:55.478Z,4.63
2023-09-30T00:54:25.585Z,4.23
2023-09-30T00:56:56.739Z,4.40
2023-09-30T00:59:24.267Z,4.10
2023-09-30T01:01:51.036Z,3.67
2023-09-30T01:04:19.211Z,4.77
2023-09-30T01:06:46.187Z,4.53
2023-09-30T01:09:14.087Z,4.33
2023-09-30T01:11:45.471Z,4.57
2023-09-30T01:14:28.633Z,4.30
2023-09-30T01:16:56.124Z,4.00
2023-09-30T01:19:25.212Z,3.67
2023-09-30T01:21:55.866Z,4.37
2023-09-30T01:24:22.909Z,4.20
2023-09-30T01:26:49.730Z,5.20
2023-09-30T01:29:16.611Z,5.17
2023-09-30T01:31:43.602Z,4.83
2023-09-30T01:34:11.824Z,4.93
2023-09-30T01:36:38.545Z,4.90
2023-09-30T01:39:05.522Z,5.37
2023-09-30T01:41:32.284Z,5.27
2023-09-30T01:43:59.174Z,5.50
2023-09-30T01:46:26.982Z,5.97
2023-09-30T01:48:53.693Z,4.83
2023-09-30T01:51:20.412Z,5.70
2023-09-30T01:53:47.172Z,5.40
2023-09-30T01:56:13.827Z,5.37
2023-09-30T01:58:40.574Z,5.50
2023-09-30T02:01:07.444Z,5.63
2023-09-30T02:03:34.274Z,5.33
2023-09-30T02:06:01.153Z,5.80
2023-09-30T02:08:27.836Z,7.30
2023-09-30T02:10:54.853Z,6.63
2023-09-30T02:13:21.589Z,9.40
2023-09-30T02:15:48.438Z,6.90
2023-09-30T02:18:15.899Z,6.40
2023-09-30T02:20:42.667Z,6.93
2023-09-30T02:23:12.592Z,6.90
2023-09-30T02:25:39.955Z,7.50
2023-09-30T02:28:07.646Z,6.33
2023-09-30T02:30:34.363Z,6.60
2023-09-30T02:33:01.558Z,6.60
2023-09-30T02:35:28.348Z,7.47
2023-09-30T02:37:55.230Z,6.53
2023-09-30T02:40:21.937Z,6.80
2023-09-30T02:42:49.975Z,6.30
2023-09-30T02:45:18.569Z,6.03
2023-09-30T02:47:45.715Z,6.47
2023-09-30T02:50:13.054Z,6.30
2023-09-30T02:52:42.998Z,6.47
2023-09-30T02:55:11.028Z,6.23
2023-09-30T02:57:38.565Z,5.93
2023-09-30T03:00:24.958Z,6.20
2023-09-30T03:02:54.460Z,5.53
2023-09-30T03:05:21.757Z,6.40
2023-09-30T03:07:49.262Z,6.00
2023-09-30T03:10:21.253Z,5.47
2023-09-30T03:12:49.060Z,6.33
2023-09-30T03:15:16.691Z,6.20
2023-09-30T03:17:44.346Z,6.27
2023-09-30T03:20:15.678Z,5.93
2023-09-30T03:22:43.866Z,5.37
2023-09-30T03:25:12.613Z,5.43
2023-09-30T03:27:40.044Z,6.03
2023-09-30T03:30:07.995Z,5.47
2023-09-30T03:32:35.031Z,5.80
2023-09-30T03:35:02.036Z,5.60
2023-09-30T03:37:29.228Z,5.60
2023-09-30T03:39:56.251Z,5.40
2023-09-30T03:42:23.372Z,5.60
2023-09-30T03:44:50.129Z,5.50
2023-09-30T03:47:17.490Z,4.80
2023-09-30T03:49:44.367Z,6.00
2023-09-30T03:52:15.746Z,5.60
2023-09-30T03:54:43.013Z,6.40
2023-09-30T03:57:09.775Z,7.00
2023-09-30T03:59:36.490Z,6.20
2023-09-30T04:02:03.199Z,5.33
2023-09-30T04:04:30.060Z,5.47
2023-09-30T04:06:56.848Z,5.77
2023-09-30T04:09:23.597Z,5.67
2023-09-30T04:11:50.462Z,6.40
2023-09-30T04:14:18.347Z,5.70
2023-09-30T04:16:45.915Z,6.60
2023-09-30T04:19:12.853Z,6.03
2023-09-30T04:21:40.073Z,6.67
2023-09-30T04:24:08.015Z,6.70
2023-09-30T04:26:34.766Z,5.53
2023-09-30T04:29:02.378Z,5.33
2023-09-30T04:31:30.230Z,5.00
2023-09-30T04:33:59.136Z,5.80
2023-09-30T04:36:26.123Z,5.80
2023-09-30T04:38:52.828Z,5.20
2023-09-30T04:41:20.188Z,5.90
2023-09-30T04:43:47.376Z,6.40
2023-09-30T04:46:14.739Z,7.73
2023-09-30T04:48:42.424Z,7.33
2023-09-30T04:51:10.655Z,9.10
2023-09-30T04:53:38.893Z,6.93
2023-09-30T04:56:05.882Z,8.63
2023-09-30T04:58:32.570Z,9.47
2023-09-30T05:00:59.682Z,9.33
2023-09-30T05:03:26.906Z,9.23
2023-09-30T05:05:57.877Z,9.10
2023-09-30T05:08:25.481Z,7.80
2023-09-30T05:10:56.370Z,7.43
2023-09-30T05:13:24.501Z,6.37
2023-09-30T05:15:55.055Z,6.10
2023-09-30T05:18:21.919Z,5.23
2023-09-30T05:20:50.495Z,5.27
2023-09-30T05:23:18.616Z,6.30
2023-09-30T05:25:45.425Z,6.87
2023-09-30T05:28:12.734Z,7.80
2023-09-30T05:30:40.399Z,7.67
2023-09-30T05:33:07.925Z,7.27
2023-09-30T05:35:34.689Z,7.10
2023-09-30T05:38:01.629Z,6.20
2023-09-30T05:40:31.309Z,6.93
2023-09-30T05:43:00.086Z,7.20
2023-09-30T05:45:28.992Z,6.57
2023-09-30T05:47:58.187Z,6.80
2023-09-30T05:50:26.465Z,6.53
2023-09-30T05:52:54.897Z,6.40
2023-09-30T05:55:23.067Z,6.73
2023-09-30T05:57:51.010Z,7.20
2023-09-30T06:00:21.940Z,6.70
2023-09-30T06:02:49.753Z,7.23
2023-09-30T06:05:27.592Z,7.53
2023-09-30T06:07:55.311Z,8.77
2023-09-30T06:10:22.556Z,7.13
2023-09-30T06:12:56.019Z,7.17
2023-09-30T06:15:27.069Z,7.17
2023-09-30T06:17:55.332Z,8.03
2023-09-30T06:20:23.665Z,6.63
2023-09-30T06:22:50.830Z,7.10
2023-09-30T06:25:18.923Z,7.23
2023-09-30T06:27:47.112Z,6.50
2023-09-30T06:30:17.034Z,6.43
2023-09-30T06:32:44.936Z,6.53
2023-09-30T06:35:12.068Z,7.13
2023-09-30T06:37:40.249Z,6.57
2023-09-30T06:40:09.510Z,6.33
2023-09-30T06:42:38.168Z,5.93
2023-09-30T06:45:08.575Z,5.73
2023-09-30T06:47:37.468Z,6.03
2023-09-30T06:50:17.353Z,5.03
2023-09-30T06:52:46.586Z,5.97
2023-09-30T06:55:17.794Z,5.70
2023-09-30T06:57:44.969Z,5.80
2023-09-30T07:00:14.242Z,5.63
2023-09-30T07:02:42.269Z,5.47
2023-09-30T07:05:13.737Z,5.67
2023-09-30T07:07:41.962Z,5.17
2023-09-30T07:10:09.319Z,4.70
2023-09-30T07:12:37.438Z,5.27
2023-09-30T07:15:05.937Z,5.23
2023-09-30T07:17:35.137Z,5.73
2023-09-30T07:20:06.170Z,5.33
2023-09-30T07:22:46.113Z,4.60
2023-09-30T07:25:19.746Z,4.63
2023-09-30T07:27:47.119Z,6.37
2023-09-30T07:30:16.747Z,4.80
2023-09-30T07:32:44.908Z,5.47
2023-09-30T07:35:13.046Z,4.13
2023-09-30T07:37:39.841Z,3.70
2023-09-30T07:40:07.555Z,3.90
2023-09-30T07:42:34.747Z,4.23
2023-09-30T07:45:02.173Z,3.87
2023-09-30T07:47:28.885Z,3.80
2023-09-30T07:49:55.797Z,3.50
2023-09-30T07:52:22.422Z,3.97
2023-09-30T07:54:49.194Z,3.30
2023-09-30T07:57:15.883Z,3.60
2023-09-30T07:59:42.744Z,3.70
2023-09-30T08:02:09.756Z,3.28
2023-09-30T08:04:36.964Z,3.45
2023-09-30T08:07:04.119Z,3.55
2023-09-30T08:09:31.005Z,3.90
2023-09-30T08:11:58.026Z,3.15
2023-09-30T08:14:24.878Z,3.72
2023-09-30T08:16:51.873Z,3.70
2023-09-30T08:19:18.565Z,3.70
2023-09-30T08:21:46.262Z,3.20
2023-09-30T08:24:13.027Z,3.70
2023-09-30T08:26:39.824Z,3.55
2023-09-30T08:29:07.506Z,4.00
2023-09-30T08:31:34.484Z,3.30
2023-09-30T08:34:01.528Z,3.38
2023-09-30T08:36:28.285Z,3.40
2023-09-30T08:38:55.211Z,3.20
2023-09-30T08:41:40.047Z,3.45
2023-09-30T08:44:06.883Z,2.90
2023-09-30T08:46:35.928Z,3.45
2023-09-30T08:49:04.499Z,3.00
2023-09-30T08:51:32.737Z,3.15
2023-09-30T08:54:02.147Z,2.60
2023-09-30T08:56:30.235Z,3.15
2023-09-30T08:59:01.801Z,2.50
2023-09-30T09:01:29.419Z,2.50
2023-09-30T09:03:57.463Z,2.70
2023-09-30T09:06:25.924Z,2.50
2023-09-30T09:08:53.725Z,2.35
2023-09-30T09:11:20.660Z,2.40
2023-09-30T09:13:50.758Z,2.47
2023-09-30T09:16:21.291Z,2.30
2023-09-30T09:18:48.975Z,2.50
2023-09-30T09:21:19.164Z,2.10
2023-09-30T09:23:48.120Z,2.35
2023-09-30T09:26:36.806Z,2.35
2023-09-30T09:29:05.897Z,2.60
2023-09-30T09:31:35.818Z,2.20
2023-09-30T09:34:04.625Z,2.65
2023-09-30T09:36:45.866Z,2.55
2023-09-30T09:39:17.543Z,2.65
2023-09-30T09:41:55.652Z,2.80
2023-09-30T09:44:23.979Z,2.67
2023-09-30T09:46:51.660Z,2.55
2023-09-30T09:49:19.896Z,2.53
2023-09-30T09:51:49.058Z,2.60
2023-09-30T09:54:16.920Z,2.30
2023-09-30T09:56:47.194Z,2.70
2023-09-30T09:59:15.035Z,2.72
2023-09-30T10:01:43.107Z,2.85
2023-09-30T10:04:12.333Z,2.60
2023-09-30T10:06:42.400Z,2.70
2023-09-30T10:09:12.059Z,2.38
2023-09-30T10:11:41.087Z,3.10
2023-09-30T10:14:14.156Z,2.90
2023-09-30T10:16:43.750Z,2.90
2023-09-30T10:19:13.541Z,2.60
2023-09-30T10:21:40.865Z,3.22
2023-09-30T10:24:26.024Z,3.22
2023-09-30T10:27:32.706Z,3.08
2023-09-30T10:30:03.647Z,3.38
2023-09-30T10:32:53.968Z,2.90
2023-09-30T10:35:21.388Z,3.47
2023-09-30T10:37:49.784Z,3.40
2023-09-30T10:40:30.486Z,3.08
2023-09-30T10:42:58.148Z,3.60
2023-09-30T10:45:44.477Z,3.63
2023-09-30T10:48:26.681Z,3.00
2023-09-30T10:50:56.615Z,3.08
2023-09-30T10:53:23.950Z,3.75
2023-09-30T10:56:08.944Z,3.30
2023-09-30T10:58:42.157Z,5.07
2023-09-30T11:01:09.367Z,4.78
2023-09-30T11:03:36.582Z,4.43
2023-09-30T11:06:12.410Z,4.45
2023-09-30T11:08:44.291Z,4.97
2023-09-30T11:11:11.023Z,4.10
2023-09-30T11:13:37.952Z,4.38
2023-09-30T11:16:05.945Z,4.25
2023-09-30T11:18:33.508Z,4.63
2023-09-30T11:21:09.006Z,4.70
2023-09-30T11:23:36.514Z,5.00
2023-09-30T11:26:03.918Z,5.40
2023-09-30T11:28:41.664Z,5.50
2023-09-30T11:31:11.849Z,5.28
2023-09-30T11:33:54.938Z,6.15
2023-09-30T11:36:25.033Z,5.72
2023-09-30T11:38:56.014Z,5.68
2023-09-30T11:41:23.836Z,5.28
2023-09-30T11:44:06.318Z,5.32
2023-09-30T11:46:34.643Z,5.70
2023-09-30T11:49:09.801Z,5.22
2023-09-30T11:51:48.648Z,5.45
2023-09-30T11:54:15.618Z,4.68
2023-09-30T11:56:42.366Z,4.95
2023-09-30T11:59:11.608Z,5.07
2023-09-30T12:01:38.727Z,5.93
2023-09-30T12:04:06.046Z,5.32
2023-09-30T12:06:35.281Z,5.13
2023-09-30T12:09:03.941Z,5.38
2023-09-30T12:11:30.741Z,5.18
2023-09-30T12:13:57.536Z,5.30
2023-09-30T12:16:25.152Z,5.07
2023-09-30T12:18:51.980Z,5.88
2023-09-30T12:21:21.872Z,6.50
2023-09-30T12:23:49.638Z,6.57
2023-09-30T12:26:20.200Z,6.50
2023-09-30T12:28:48.255Z,6.25
2023-09-30T12:31:15.237Z,6.97
2023-09-30T12:33:42.321Z,7.10
2023-09-30T12:36:09.215Z,6.75
2023-09-30T12:38:35.947Z,6.95
2023-09-30T12:41:02.638Z,6.55
2023-09-30T12:43:29.384Z,6.13
2023-09-30T12:45:56.289Z,6.10
2023-09-30T12:48:23.112Z,6.35
2023-09-30T12:50:49.828Z,6.25
2023-09-30T12:53:16.525Z,6.03
2023-09-30T12:55:43.353Z,6.80
2023-09-30T12:58:10.203Z,6.03
2023-09-30T13:00:37.416Z,6.25
2023-09-30T13:03:04.875Z,6.22
2023-09-30T13:05:31.895Z,6.25
2023-09-30T13:07:58.897Z,6.68
2023-09-30T13:10:26.739Z,7.28
2023-09-30T13:12:54.996Z,6.47
2023-09-30T13:15:22.730Z,6.85
2023-09-30T13:17:49.447Z,6.65
2023-09-30T13:20:16.193Z,6.50
2023-09-30T13:22:42.913Z,6.40
2023-09-30T13:25:11.835Z,6.32
2023-09-30T13:27:39.757Z,6.47
2023-09-30T13:30:08.747Z,6.25
2023-09-30T13:32:39.290Z,6.13
2023-09-30T13:35:07.361Z,6.57
2023-09-30T13:37:34.617Z,6.38
2023-09-30T13:40:03.104Z,5.65
2023-09-30T13:42:30.032Z,5.68
2023-09-30T13:44:58.630Z,6.20
2023-09-30T13:47:26.402Z,5.78
2023-09-30T13:49:53.656Z,6.22
2023-09-30T13:52:20.367Z,5.95
2023-09-30T13:54:47.586Z,5.75
2023-09-30T13:57:15.371Z,6.10
2023-09-30T13:59:43.402Z,6.07
2023-09-30T14:02:10.293Z,6.50
2023-09-30T14:04:37.136Z,6.30
2023-09-30T14:07:04.373Z,6.28
2023-09-30T14:09:36.199Z,6.00
2023-09-30T14:12:05.500Z,6.07
2023-09-30T14:14:34.445Z,5.90
2023-09-30T14:17:01.581Z,6.53
2023-09-30T14:19:29.792Z,6.53
2023-09-30T14:21:57.697Z,6.03
2023-09-30T14:24:24.542Z,5.53
2023-09-30T14:26:51.228Z,6.00
2023-09-30T14:29:18.079Z,5.87
2023-09-30T14:31:44.860Z,5.37
2023-09-30T14:34:11.764Z,5.80
2023-09-30T14:36:38.634Z,5.33
2023-09-30T14:39:14.314Z,5.60
2023-09-30T14:41:41.996Z,6.47
2023-09-30T14:44:09.005Z,6.15
2023-09-30T14:46:37.016Z,6.60
2023-09-30T14:49:03.806Z,6.05
2023-09-30T14:51:30.608Z,5.93
2023-09-30T14:53:57.288Z,6.17
2023-09-30T14:56:24.174Z,6.17
2023-09-30T14:58:50.911Z,5.30
2023-09-30T15:01:18.654Z,5.13
2023-09-30T15:03:45.568Z,5.57
2023-09-30T15:06:12.473Z,5.80
2023-09-30T15:08:39.989Z,5.67
2023-09-30T15:11:07.454Z,5.63
2023-09-30T15:13:34.171Z,5.70
2023-09-30T15:16:00.998Z,5.40
2023-09-30T15:18:27.920Z,5.77
2023-09-30T15:20:54.587Z,5.63
2023-09-30T15:23:21.654Z,5.37
2023-09-30T15:25:48.494Z,5.03
2023-09-30T15:28:15.249Z,5.00
2023-09-30T15:30:42.165Z,5.30
2023-09-30T15:33:09.659Z,5.27
2023-09-30T15:35:36.581Z,5.30
2023-09-30T15:38:04.637Z,4.77
2023-09-30T15:40:33.300Z,4.90
2023-09-30T15:43:00.308Z,4.60
2023-09-30T15:45:27.061Z,4.63
2023-09-30T15:47:53.839Z,5.10
2023-09-30T15:50:21.047Z,4.43
2023-09-30T15:52:47.885Z,4.80
2023-09-30T15:55:14.787Z,4.30
2023-09-30T15:57:43.734Z,4.50
2023-09-30T16:00:11.666Z,3.97
2023-09-30T16:02:38.634Z,4.17
2023-09-30T16:05:05.800Z,4.47
2023-09-30T16:07:32.650Z,4.17
2023-09-30T16:09:59.433Z,4.07
2023-09-30T16:12:26.175Z,3.93
2023-09-30T16:14:52.862Z,4.47
2023-09-30T16:17:20.940Z,4.00
2023-09-30T16:19:47.698Z,4.63
2023-09-30T16:22:14.562Z,4.33
2023-09-30T16:24:41.269Z,4.40
2023-09-30T16:27:07.996Z,4.20
2023-09-30T16:29:34.700Z,4.10
2023-09-30T16:32:01.473Z,4.60
2023-09-30T16:34:29.007Z,4.13
2023-09-30T16:36:55.804Z,4.43
2023-09-30T16:39:22.568Z,5.03
2023-09-30T16:41:49.239Z,4.60
2023-09-30T16:44:16.295Z,5.10
2023-09-30T16:46:43.012Z,4.50
2023-09-30T16:49:10.130Z,5.20
2023-09-30T16:51:36.964Z,5.17
2023-09-30T16:54:03.792Z,5.10
2023-09-30T16:56:30.508Z,5.60
2023-09-30T16:58:58.131Z,5.33
2023-09-30T17:01:25.016Z,5.17
2023-09-30T17:03:51.888Z,5.67
2023-09-30T17:06:18.599Z,4.73
2023-09-30T17:08:45.355Z,5.40
2023-09-30T17:11:12.132Z,5.40
2023-09-30T17:13:38.891Z,4.80
2023-09-30T17:16:07.203Z,4.90
2023-09-30T17:18:34.973Z,4.60
2023-09-30T17:21:02.054Z,5.00
2023-09-30T17:23:28.791Z,5.20
2023-09-30T17:26:01.321Z,5.27
2023-09-30T17:28:28.117Z,5.30
2023-09-30T17:30:54.904Z,5.70
2023-09-30T17:33:22.001Z,5.20
2023-09-30T17:35:48.703Z,5.03
2023-09-30T17:38:15.467Z,5.10
2023-09-30T17:40:42.225Z,5.43
2023-09-30T17:43:09.092Z,5.90
2023-09-30T17:45:36.037Z,6.83
2023-09-30T17:48:02.901Z,6.87
2023-09-30T17:50:29.681Z,6.60
2023-09-30T17:52:56.365Z,6.60
2023-09-30T17:55:23.253Z,5.90
2023-09-30T17:57:50.056Z,5.90
2023-09-30T18:00:18.585Z,6.50
2023-09-30T18:02:45.907Z,6.00
2023-09-30T18:05:12.728Z,6.23
2023-09-30T18:07:39.495Z,6.60
2023-09-30T18:10:06.850Z,6.17
2023-09-30T18:12:33.764Z,6.57
2023-09-30T18:15:00.641Z,6.30
2023-09-30T18:17:27.599Z,6.43
2023-09-30T18:19:54.611Z,5.77
2023-09-30T18:22:21.616Z,6.53
2023-09-30T18:24:48.477Z,6.70
2023-09-30T18:27:15.281Z,7.47
2023-09-30T18:29:44.237Z,7.00
2023-09-30T18:32:11.154Z,7.87
2023-09-30T18:34:37.932Z,7.30
2023-09-30T18:37:04.696Z,7.80
2023-09-30T18:39:32.639Z,9.10
2023-09-30T18:41:59.365Z,8.20
2023-09-30T18:44:26.264Z,7.60
2023-09-30T18:46:53.417Z,7.43
2023-09-30T18:49:20.303Z,7.37
2023-09-30T18:51:47.284Z,7.73
2023-09-30T18:54:14.252Z,6.70
2023-09-30T18:56:41.040Z,6.80
2023-09-30T18:59:10.053Z,6.40
2023-09-30T19:01:38.186Z,6.80
2023-09-30T19:04:06.296Z,6.63
2023-09-30T19:06:33.274Z,6.63
2023-09-30T19:09:00.005Z,7.03
2023-09-30T19:11:27.379Z,7.20
2023-09-30T19:13:54.132Z,7.60
2023-09-30T19:16:21.046Z,7.47
2023-09-30T19:18:48.025Z,8.17
2023-09-30T19:21:15.650Z,7.60
2023-09-30T19:23:42.473Z,6.93
2023-09-30T19:26:15.883Z,7.03
2023-09-30T19:28:44.014Z,6.50
2023-09-30T19:31:14.832Z,6.63
2023-09-30T19:33:43.845Z,7.10
2023-09-30T19:36:12.128Z,8.13
2023-09-30T19:38:39.975Z,9.93
2023-09-30T19:41:13.620Z,8.93
2023-09-30T19:43:41.605Z,8.73
2023-09-30T19:46:08.536Z,8.67
2023-09-30T19:48:35.316Z,8.10
2023-09-30T19:51:01.994Z,7.47
2023-09-30T19:53:28.872Z,7.20
2023-09-30T19:55:55.588Z,7.07
2023-09-30T19:58:22.434Z,7.23
2023-09-30T20:00:49.505Z,6.80
2023-09-30T20:03:16.430Z,6.13
2023-09-30T20:05:43.366Z,6.57
2023-09-30T20:08:10.262Z,6.23
2023-09-30T20:10:38.168Z,6.50
2023-09-30T20:13:10.580Z,5.93
2023-09-30T20:15:37.511Z,5.63
2023-09-30T20:18:04.661Z,5.50
2023-09-30T20:20:31.829Z,5.40
2023-09-30T20:22:58.696Z,6.20
2023-09-30T20:25:26.387Z,5.97
2023-09-30T20:27:53.285Z,5.47
2023-09-30T20:30:20.034Z,6.27
2023-09-30T20:32:47.525Z,6.93
2023-09-30T20:35:14.413Z,6.53
2023-09-30T20:37:41.208Z,6.07
2023-09-30T20:40:12.122Z,5.57
2023-09-30T20:42:39.078Z,6.50
2023-09-30T20:45:06.698Z,6.60
2023-09-30T20:47:34.291Z,6.20
2023-09-30T20:50:01.048Z,6.90
2023-09-30T20:52:28.710Z,7.30
2023-09-30T20:54:55.512Z,8.00
2023-09-30T20:57:22.220Z,6.73
2023-09-30T20:59:48.912Z,7.20
2023-09-30T21:02:15.679Z,7.27
2023-09-30T21:04:42.595Z,6.80
2023-09-30T21:07:11.680Z,8.33
2023-09-30T21:09:38.573Z,8.53
2023-09-30T21:12:05.623Z,8.10
2023-09-30T21:14:32.400Z,8.70
2023-09-30T21:16:59.688Z,8.13
2023-09-30T21:19:26.462Z,8.47
2023-09-30T21:21:54.049Z,7.70
2023-09-30T21:24:21.225Z,8.23
2023-09-30T21:26:47.927Z,7.67
2023-09-30T21:29:14.668Z,7.70
2023-09-30T21:31:42.779Z,7.33
2023-09-30T21:34:09.856Z,7.50
2023-09-30T21:36:36.722Z,7.37
2023-09-30T21:39:06.460Z,6.60
2023-09-30T21:41:34.562Z,6.70
2023-09-30T21:44:02.597Z,6.97
2023-09-30T21:46:29.495Z,7.10
2023-09-30T21:48:56.955Z,6.87
2023-09-30T21:51:23.988Z,7.40
2023-09-30T21:53:50.758Z,6.73
2023-09-30T21:56:17.534Z,7.17
2023-09-30T21:58:44.395Z,6.77
2023-09-30T22:01:15.243Z,6.30
2023-09-30T22:03:47.187Z,6.20
2023-09-30T22:06:14.252Z,6.43
2023-09-30T22:08:41.149Z,6.73
2023-09-30T22:11:08.448Z,6.30
2023-09-30T22:13:36.414Z,7.07
2023-09-30T22:16:03.307Z,6.07
2023-09-30T22:18:30.236Z,6.90
2023-09-30T22:20:57.176Z,6.70
2023-09-30T22:23:24.188Z,6.47
2023-09-30T22:25:51.121Z,6.90
2023-09-30T22:28:18.056Z,6.77
2023-09-30T22:30:47.388Z,6.20
2023-09-30T22:33:14.412Z,5.97
2023-09-30T22:35:42.143Z,5.07
2023-09-30T22:38:09.440Z,5.57
2023-09-30T22:40:36.233Z,5.77
2023-09-30T22:43:06.135Z,6.10
2023-09-30T22:45:34.627Z,6.30
2023-09-30T22:48:01.459Z,5.37
2023-09-30T22:50:28.344Z,5.50
2023-09-30T22:52:56.455Z,5.80
2023-09-30T22:55:24.644Z,6.03
2023-09-30T22:57:54.948Z,5.93
2023-09-30T23:00:23.095Z,6.20
2023-09-30T23:02:50.137Z,6.37
2023-09-30T23:05:18.441Z,5.87
2023-09-30T23:07:46.199Z,6.47
2023-09-30T23:10:18.197Z,6.57
2023-09-30T23:12:45.198Z,6.50
2023-09-30T23:15:15.223Z,6.47
2023-09-30T23:17:45.434Z,6.07
2023-09-30T23:20:21.335Z,6.37
2023-09-30T23:22:52.491Z,6.80
2023-09-30T23:25:27.998Z,6.93
2023-09-30T23:27:56.731Z,6.67
2023-09-30T23:30:25.688Z,7.63
2023-09-30T23:32:54.482Z,7.33
2023-09-30T23:35:22.271Z,7.20
2023-09-30T23:37:54.310Z,6.90
2023-09-30T23:40:24.119Z,7.20
2023-09-30T23:42:54.591Z,6.90
2023-09-30T23:45:21.532Z,6.67
2023-09-30T23:47:52.007Z,7.13
2023-09-30T23:50:20.704Z,6.63
2023-09-30T23:52:52.835Z,6.07
2023-09-30T23:55:23.352Z,6.40
2023-09-30T23:57:50.423Z,6.00
